Time;durP1;ratioP1;P1;durP2;ratioP2;P2;SDS_P1;SDS_P2;PMS_P1;PMS_P2;Temp;Humidity;BMP_temperature;BMP_pressure;BME280_temperature;BME280_humidity;BME280_pressure;Samples;Min_cycle;Max_cycle;Signal;HPM_P1;HPM_P2
2023/07/31 00:02:04;;;;;;;4.30;2.90;;;16.10;99.90;;;;;;5056787;28;20047;-64
2023/07/31 00:04:30;;;;;;;4.97;3.08;;;16.10;99.90;;;;;;5056957;28;20065;-64
2023/07/31 00:06:57;;;;;;;3.88;2.85;;;16.00;99.90;;;;;;5022579;28;20064;-64
2023/07/31 00:09:23;;;;;;;3.80;2.97;;;16.00;99.90;;;;;;5038905;28;20049;-64
2023/07/31 00:11:50;;;;;;;4.38;2.92;;;16.00;99.90;;;;;;5039238;28;20060;-64
2023/07/31 00:14:16;;;;;;;3.22;2.65;;;15.90;99.90;;;;;;5056537;28;20465;-64
2023/07/31 00:16:43;;;;;;;3.70;2.47;;;16.00;99.90;;;;;;5056419;28;20114;-65
2023/07/31 00:19:09;;;;;;;3.13;2.28;;;15.90;99.90;;;;;;5039202;28;20052;-64
2023/07/31 00:21:35;;;;;;;4.00;3.10;;;15.90;99.90;;;;;;5038931;28;20052;-65
2023/07/31 00:24:02;;;;;;;4.30;2.22;;;15.80;99.90;;;;;;5056692;28;20118;-64
2023/07/31 00:26:30;;;;;;;3.75;2.65;;;15.90;99.90;;;;;;5038649;28;20381;-64
2023/07/31 00:28:57;;;;;;;3.33;2.20;;;15.80;99.90;;;;;;5038459;28;20362;-64
2023/07/31 00:31:24;;;;;;;3.72;2.25;;;15.70;99.90;;;;;;5055904;28;20056;-64
2023/07/31 00:33:50;;;;;;;3.03;2.10;;;15.70;99.90;;;;;;5056617;28;20106;-64
2023/07/31 00:36:17;;;;;;;3.65;2.10;;;15.70;99.90;;;;;;5056542;28;20123;-64
2023/07/31 00:38:44;;;;;;;2.60;1.80;;;15.60;99.90;;;;;;5033658;28;20045;-64
2023/07/31 00:41:10;;;;;;;3.00;1.80;;;15.60;99.90;;;;;;5032419;28;20045;-64
2023/07/31 00:43:36;;;;;;;2.78;1.80;;;15.60;99.90;;;;;;5018996;28;20112;-64
2023/07/31 00:46:04;;;;;;;2.25;1.75;;;15.70;99.90;;;;;;5018926;28;20068;-65
2023/07/31 00:48:31;;;;;;;2.72;1.80;;;15.60;99.90;;;;;;5017461;28;20457;-65
2023/07/31 00:50:58;;;;;;;2.17;1.55;;;15.60;99.90;;;;;;5035088;28;20049;-65
2023/07/31 00:53:25;;;;;;;2.10;1.52;;;15.70;99.90;;;;;;5035463;28;20056;-65
2023/07/31 00:55:53;;;;;;;2.55;1.65;;;15.60;99.90;;;;;;5001890;28;20465;-65
2023/07/31 00:58:19;;;;;;;1.98;1.27;;;15.70;99.90;;;;;;5019136;28;20048;-65
2023/07/31 01:00:45;;;;;;;2.40;1.40;;;15.70;99.90;;;;;;5035167;28;20049;-66
2023/07/31 01:03:12;;;;;;;2.10;1.38;;;15.60;99.90;;;;;;5038492;28;20045;-65
2023/07/31 01:06:05;;;;;;;3.35;1.50;;;15.60;99.90;;;;;;5020722;28;20049;-64
2023/07/31 01:08:41;;;;;;;2.55;1.50;;;15.60;99.90;;;;;;5055963;28;20060;-64
2023/07/31 01:11:18;;;;;;;2.10;1.30;;;15.70;99.90;;;;;;5018052;28;20068;-64
2023/07/31 01:13:45;;;;;;;4.10;1.48;;;15.70;99.90;;;;;;5018462;28;20376;-64
2023/07/31 01:16:12;;;;;;;2.28;1.60;;;15.80;99.90;;;;;;5018046;28;20060;-64
2023/07/31 01:18:38;;;;;;;2.58;1.48;;;15.80;99.90;;;;;;5018465;28;20061;-65
2023/07/31 01:21:36;;;;;;;2.03;1.45;;;15.70;99.90;;;;;;5037599;28;20057;-64
2023/07/31 01:24:17;;;;;;;5.07;1.73;;;15.80;99.90;;;;;;5055510;28;20527;-64
2023/07/31 01:26:47;;;;;;;5.63;1.80;;;15.80;99.90;;;;;;5037551;28;20052;-64
2023/07/31 01:29:18;;;;;;;2.38;1.65;;;15.80;99.90;;;;;;5038349;28;20102;-64
2023/07/31 01:31:49;;;;;;;4.28;1.90;;;15.80;99.90;;;;;;5055375;28;20048;-65
2023/07/31 01:34:17;;;;;;;2.55;1.58;;;15.80;99.90;;;;;;5038022;28;20076;-66
2023/07/31 01:36:44;;;;;;;2.75;1.63;;;15.70;99.90;;;;;;5037022;28;20057;-65
2023/07/31 01:39:10;;;;;;;2.83;1.63;;;15.80;99.90;;;;;;5036220;28;20045;-65
2023/07/31 01:41:36;;;;;;;2.47;1.50;;;15.80;99.90;;;;;;5017826;28;20107;-64
2023/07/31 01:44:02;;;;;;;2.17;1.55;;;15.90;99.90;;;;;;5016775;28;20577;-64
2023/07/31 01:46:29;;;;;;;2.13;1.50;;;15.80;99.90;;;;;;5034999;28;20050;-65
2023/07/31 01:48:55;;;;;;;2.35;1.52;;;15.70;99.90;;;;;;5001668;28;20068;-65
2023/07/31 01:51:21;;;;;;;3.45;1.60;;;15.80;99.90;;;;;;5017378;28;20482;-65
2023/07/31 01:53:47;;;;;;;2.90;2.00;;;15.80;99.90;;;;;;5017679;28;20068;-65
2023/07/31 01:56:14;;;;;;;2.78;1.63;;;15.80;99.90;;;;;;5016916;28;20520;-65
2023/07/31 01:58:40;;;;;;;2.72;1.85;;;15.80;99.90;;;;;;5017540;28;20057;-65
2023/07/31 02:01:06;;;;;;;3.28;1.92;;;15.90;99.90;;;;;;5034922;28;20041;-65
2023/07/31 02:03:34;;;;;;;3.42;2.00;;;15.80;99.90;;;;;;5000940;28;20095;-65
2023/07/31 02:06:00;;;;;;;2.17;1.65;;;15.90;99.90;;;;;;5017095;28;20049;-65
2023/07/31 02:08:27;;;;;;;4.28;1.63;;;16.00;99.90;;;;;;5034464;28;20382;-65
2023/07/31 02:10:53;;;;;;;2.58;1.60;;;16.00;99.90;;;;;;5016824;28;20459;-65
2023/07/31 02:13:20;;;;;;;3.85;1.60;;;16.10;99.90;;;;;;5034685;28;20045;-65
2023/07/31 02:15:46;;;;;;;2.50;1.60;;;16.10;99.90;;;;;;5016838;28;20061;-64
2023/07/31 02:18:12;;;;;;;2.65;1.63;;;16.20;99.90;;;;;;5000952;28;20068;-64
2023/07/31 02:20:39;;;;;;;2.67;1.50;;;16.20;99.90;;;;;;5016093;28;20537;-65
2023/07/31 02:23:06;;;;;;;2.88;1.58;;;16.20;99.90;;;;;;5017298;28;20386;-65
2023/07/31 02:25:32;;;;;;;2.30;1.40;;;16.10;99.90;;;;;;5016971;28;20115;-65
2023/07/31 02:27:59;;;;;;;2.67;1.50;;;16.30;99.90;;;;;;5034537;28;20046;-64
2023/07/31 02:30:25;;;;;;;3.35;1.50;;;16.30;99.90;;;;;;5034326;28;20045;-66
2023/07/31 02:32:51;;;;;;;2.90;1.38;;;16.30;99.90;;;;;;5017253;28;20454;-65
2023/07/31 02:35:18;;;;;;;2.30;1.30;;;16.40;99.90;;;;;;5016076;28;20513;-65
2023/07/31 02:37:44;;;;;;;2.40;1.80;;;16.20;99.90;;;;;;5004382;28;20053;-65
2023/07/31 02:40:11;;;;;;;4.07;1.63;;;16.30;99.90;;;;;;5036442;28;20346;-65
2023/07/31 02:42:37;;;;;;;3.30;1.73;;;16.40;99.90;;;;;;5054262;28;20049;-65
2023/07/31 02:45:04;;;;;;;2.58;1.63;;;16.30;99.90;;;;;;5037232;28;20148;-64
2023/07/31 02:47:30;;;;;;;2.70;1.83;;;16.40;99.90;;;;;;5036896;28;20118;-65
2023/07/31 02:49:56;;;;;;;3.63;1.88;;;16.30;99.90;;;;;;5036646;28;20114;-65
2023/07/31 02:52:22;;;;;;;3.03;1.70;;;16.40;99.90;;;;;;5036929;28;20353;-65
2023/07/31 02:54:49;;;;;;;3.63;1.98;;;16.40;99.90;;;;;;5037558;28;20049;-65
2023/07/31 02:57:16;;;;;;;3.42;2.33;;;16.40;99.90;;;;;;5040734;28;20049;-65
2023/07/31 02:59:42;;;;;;;4.40;2.50;;;16.50;99.90;;;;;;5024264;28;20063;-65
2023/07/31 03:02:08;;;;;;;3.58;2.08;;;16.50;99.90;;;;;;5041070;28;20053;-65
2023/07/31 03:04:35;;;;;;;4.75;2.50;;;16.40;99.90;;;;;;5040830;28;20049;-65
2023/07/31 03:07:02;;;;;;;3.70;2.33;;;16.40;99.90;;;;;;5040573;28;20057;-65
2023/07/31 03:09:28;;;;;;;3.72;2.50;;;16.50;99.90;;;;;;5024099;28;20377;-65
2023/07/31 03:11:54;;;;;;;6.25;2.50;;;16.40;99.90;;;;;;5024134;28;20068;-65
2023/07/31 03:14:21;;;;;;;5.38;3.10;;;16.60;99.90;;;;;;5040663;28;20365;-65
2023/07/31 03:16:48;;;;;;;6.18;2.88;;;16.50;99.90;;;;;;5040290;28;20110;-65
2023/07/31 03:19:14;;;;;;;4.80;2.78;;;16.50;99.90;;;;;;5040523;28;20124;-65
2023/07/31 03:21:41;;;;;;;4.53;2.85;;;16.50;99.90;;;;;;5040260;28;20457;-65
2023/07/31 03:24:07;;;;;;;4.47;2.90;;;16.50;99.90;;;;;;5057787;28;20049;-65
2023/07/31 03:26:33;;;;;;;5.55;3.25;;;16.60;99.90;;;;;;5058015;28;20520;-65
2023/07/31 03:29:00;;;;;;;5.90;3.05;;;16.60;99.90;;;;;;5040149;28;20059;-65
2023/07/31 03:31:26;;;;;;;5.47;3.33;;;16.60;99.90;;;;;;5057700;28;20071;-65
2023/07/31 03:33:52;;;;;;;5.97;3.17;;;16.60;99.90;;;;;;5040037;28;20373;-65
2023/07/31 03:36:18;;;;;;;5.78;3.05;;;16.70;99.90;;;;;;5040012;28;20049;-65
2023/07/31 03:38:46;;;;;;;8.02;2.90;;;16.60;99.90;;;;;;5039359;28;20052;-65
2023/07/31 03:41:13;;;;;;;6.65;3.05;;;16.60;99.90;;;;;;5036450;28;20462;-65
2023/07/31 03:43:39;;;;;;;8.20;3.63;;;16.70;99.90;;;;;;5020763;28;20385;-65
2023/07/31 03:46:05;;;;;;;6.03;3.22;;;16.80;99.90;;;;;;5019702;28;20049;-66
2023/07/31 03:48:31;;;;;;;8.32;3.60;;;16.70;99.90;;;;;;5019821;28;20446;-66
2023/07/31 03:50:58;;;;;;;7.78;3.78;;;16.60;99.90;;;;;;5055594;28;20484;-65
2023/07/31 03:53:24;;;;;;;6.43;2.95;;;16.70;99.90;;;;;;5039969;28;20106;-66
2023/07/31 03:55:51;;;;;;;6.38;3.03;;;16.70;99.90;;;;;;5039643;28;20045;-65
2023/07/31 03:58:18;;;;;;;9.48;3.67;;;16.70;99.90;;;;;;5039487;28;20370;-65
2023/07/31 04:00:45;;;;;;;5.88;3.22;;;16.60;99.90;;;;;;5038589;28;20114;-66
2023/07/31 04:03:12;;;;;;;11.98;3.72;;;16.60;99.90;;;;;;5023435;28;20052;-65
2023/07/31 04:05:39;;;;;;;8.80;3.67;;;16.70;99.90;;;;;;5039071;28;20056;-66
2023/07/31 04:08:06;;;;;;;9.77;4.50;;;16.70;99.90;;;;;;5022495;28;20049;-65
2023/07/31 04:10:33;;;;;;;12.00;4.65;;;16.60;99.90;;;;;;5034886;28;20049;-65
2023/07/31 04:13:00;;;;;;;14.57;5.03;;;16.70;99.90;;;;;;5039696;28;20064;-65
2023/07/31 04:15:26;;;;;;;14.52;5.38;;;16.70;99.90;;;;;;5038732;28;20041;-65
2023/07/31 04:17:54;;;;;;;15.48;5.45;;;16.80;99.90;;;;;;5038766;28;20049;-66
2023/07/31 04:20:21;;;;;;;14.95;5.53;;;16.60;99.90;;;;;;5037189;28;20450;-66
2023/07/31 04:22:47;;;;;;;16.08;5.70;;;16.70;99.90;;;;;;5038589;28;20103;-66
2023/07/31 04:25:13;;;;;;;18.10;5.90;;;16.60;99.90;;;;;;5038412;28;20041;-66
2023/07/31 04:27:40;;;;;;;17.10;5.63;;;16.70;99.90;;;;;;5038473;28;20048;-66
2023/07/31 04:30:07;;;;;;;12.10;5.22;;;16.80;99.90;;;;;;5034315;28;20416;-66
2023/07/31 04:32:35;;;;;;;14.10;5.50;;;16.70;99.90;;;;;;5022288;28;20045;-66
2023/07/31 04:35:02;;;;;;;15.10;5.68;;;16.80;99.90;;;;;;5055999;28;20484;-65
2023/07/31 04:37:29;;;;;;;15.73;5.53;;;16.80;99.90;;;;;;5021096;28;20041;-66
2023/07/31 04:39:56;;;;;;;18.67;6.18;;;16.70;99.90;;;;;;5037145;28;20168;-66
2023/07/31 04:42:22;;;;;;;16.17;5.88;;;16.70;99.90;;;;;;5044417;28;20041;-66
2023/07/31 04:44:49;;;;;;;13.25;5.65;;;16.80;99.90;;;;;;5057472;28;20052;-66
2023/07/31 04:47:15;;;;;;;15.30;6.25;;;16.80;99.90;;;;;;5052824;28;20079;-66
2023/07/31 04:49:42;;;;;;;14.05;6.40;;;16.80;99.90;;;;;;5061483;28;20049;-66
2023/07/31 04:52:08;;;;;;;13.30;5.85;;;16.80;99.90;;;;;;5035844;28;20084;-66
2023/07/31 04:54:34;;;;;;;18.05;6.45;;;16.80;99.90;;;;;;5021319;28;20052;-66
2023/07/31 04:57:00;;;;;;;18.25;6.75;;;16.80;99.90;;;;;;5037773;28;20439;-66
2023/07/31 04:59:27;;;;;;;19.58;6.60;;;16.80;99.90;;;;;;5038210;28;20045;-66
2023/07/31 05:01:54;;;;;;;20.45;6.65;;;16.70;99.90;;;;;;5022383;28;20044;-66
2023/07/31 05:04:20;;;;;;;16.92;6.85;;;16.70;99.90;;;;;;5038193;28;20052;-66
2023/07/31 05:06:46;;;;;;;19.48;6.82;;;16.90;99.90;;;;;;5037778;28;20135;-66
2023/07/31 05:09:13;;;;;;;17.92;6.28;;;16.80;99.90;;;;;;5038546;28;20132;-65
2023/07/31 05:11:40;;;;;;;15.68;6.35;;;16.80;99.90;;;;;;5055950;28;20052;-65
2023/07/31 05:14:07;;;;;;;20.85;7.38;;;16.70;99.90;;;;;;5038164;28;20119;-66
2023/07/31 05:16:33;;;;;;;16.55;6.18;;;16.80;99.90;;;;;;5037560;28;20044;-66
2023/07/31 05:18:59;;;;;;;21.75;6.85;;;16.90;99.90;;;;;;5054441;28;20053;-66
2023/07/31 05:21:26;;;;;;;19.33;7.35;;;16.90;99.90;;;;;;5036569;28;20103;-65
2023/07/31 05:23:53;;;;;;;21.75;6.75;;;16.90;99.90;;;;;;5037618;28;20048;-67
2023/07/31 05:26:19;;;;;;;21.92;6.45;;;16.90;99.90;;;;;;5036199;28;20464;-67
2023/07/31 05:28:45;;;;;;;17.10;7.57;;;16.80;99.90;;;;;;5036795;28;20421;-66
2023/07/31 05:31:12;;;;;;;16.40;6.30;;;16.80;99.90;;;;;;5037989;28;20065;-66
2023/07/31 05:33:38;;;;;;;21.83;7.15;;;16.90;99.90;;;;;;5021596;28;20051;-66
2023/07/31 05:36:04;;;;;;;22.60;8.10;;;16.80;99.90;;;;;;5037146;28;20071;-66
2023/07/31 05:38:31;;;;;;;17.77;6.72;;;16.90;99.90;;;;;;5023902;28;20598;-66
2023/07/31 05:40:57;;;;;;;17.10;6.45;;;16.80;99.90;;;;;;5017297;28;20053;-66
2023/07/31 05:43:23;;;;;;;17.83;6.63;;;16.90;99.90;;;;;;5017503;28;20056;-66
2023/07/31 05:45:51;;;;;;;23.48;7.32;;;16.90;99.90;;;;;;5016544;28;20068;-66
2023/07/31 05:48:17;;;;;;;16.63;6.85;;;17.00;99.90;;;;;;5017028;28;20045;-66
2023/07/31 05:50:44;;;;;;;19.92;7.10;;;17.00;99.90;;;;;;5015926;28;20470;-66
2023/07/31 05:53:11;;;;;;;19.02;7.50;;;17.10;99.90;;;;;;5017248;28;20084;-66
2023/07/31 05:55:37;;;;;;;14.57;6.40;;;17.10;99.90;;;;;;5000254;28;20104;-66
2023/07/31 05:58:03;;;;;;;19.45;7.43;;;17.10;99.90;;;;;;5016646;28;20052;-66
2023/07/31 06:00:29;;;;;;;18.08;6.50;;;17.20;99.90;;;;;;5017153;28;20053;-66
2023/07/31 06:02:56;;;;;;;15.57;6.40;;;17.30;99.90;;;;;;5017248;28;20467;-66
2023/07/31 06:05:22;;;;;;;17.83;6.95;;;17.10;99.90;;;;;;5015664;28;20482;-67
2023/07/31 06:07:48;;;;;;;18.10;7.72;;;17.20;99.90;;;;;;5015139;28;20155;-67
2023/07/31 06:10:15;;;;;;;21.00;7.18;;;17.00;99.90;;;;;;4998941;28;20045;-66
2023/07/31 06:12:41;;;;;;;17.83;8.50;;;17.10;99.90;;;;;;5034227;28;20053;-66
2023/07/31 06:15:07;;;;;;;17.52;7.40;;;17.00;99.90;;;;;;5016392;28;20108;-66
2023/07/31 06:17:34;;;;;;;23.35;8.25;;;17.00;99.90;;;;;;5015851;28;20051;-66
2023/07/31 06:20:00;;;;;;;23.35;8.77;;;16.90;99.90;;;;;;5014346;28;20108;-66
2023/07/31 06:22:26;;;;;;;18.08;6.97;;;16.90;99.90;;;;;;5030408;28;20368;-66
2023/07/31 06:24:52;;;;;;;15.30;6.97;;;16.80;99.90;;;;;;5016090;28;20049;-66
2023/07/31 06:27:19;;;;;;;17.58;7.45;;;16.80;99.90;;;;;;5016273;28;20428;-66
2023/07/31 06:29:45;;;;;;;19.25;8.38;;;16.90;99.90;;;;;;5031273;28;20474;-66
2023/07/31 06:32:11;;;;;;;14.45;6.40;;;16.90;99.90;;;;;;5049694;28;20056;-66
2023/07/31 06:34:38;;;;;;;14.68;7.03;;;16.90;99.90;;;;;;5024734;28;20080;-65
2023/07/31 06:37:04;;;;;;;12.63;6.45;;;16.70;99.90;;;;;;5018887;28;20056;-66
2023/07/31 06:39:30;;;;;;;12.52;5.22;;;16.70;99.90;;;;;;5034007;28;20045;-65
2023/07/31 06:41:57;;;;;;;10.55;5.47;;;16.70;99.90;;;;;;5034554;28;20045;-65
2023/07/31 06:44:23;;;;;;;9.85;5.25;;;16.70;99.90;;;;;;5033960;28;20045;-66
2023/07/31 06:46:50;;;;;;;9.05;4.32;;;16.80;99.90;;;;;;5051981;28;20045;-66
2023/07/31 06:49:16;;;;;;;8.82;5.13;;;16.80;99.90;;;;;;5033074;28;20437;-66
2023/07/31 06:51:44;;;;;;;8.35;3.95;;;16.70;99.90;;;;;;5034501;28;20063;-66
2023/07/31 06:54:42;;;;;;;7.38;4.03;;;16.70;99.90;;;;;;5018021;28;20060;-66
2023/07/31 06:57:09;;;;;;;7.07;3.92;;;16.80;99.90;;;;;;5018403;28;20066;-66
2023/07/31 06:59:35;;;;;;;6.93;3.88;;;16.80;99.90;;;;;;5034168;28;20055;-66
2023/07/31 07:02:02;;;;;;;10.32;4.68;;;16.90;99.90;;;;;;5034674;28;20186;-66
2023/07/31 07:04:29;;;;;;;7.45;4.20;;;16.80;99.90;;;;;;5052045;28;20037;-66
2023/07/31 07:06:55;;;;;;;7.25;4.45;;;16.90;99.90;;;;;;5052897;28;20059;-66
2023/07/31 07:09:22;;;;;;;9.02;4.20;;;16.90;99.90;;;;;;5033136;28;20056;-67
2023/07/31 07:11:48;;;;;;;7.15;3.88;;;16.90;99.90;;;;;;5034992;28;20049;-66
2023/07/31 07:14:14;;;;;;;8.30;4.10;;;16.90;99.90;;;;;;5018520;28;20501;-65
2023/07/31 07:16:41;;;;;;;6.18;3.30;;;16.90;99.90;;;;;;5034239;28;20433;-65
2023/07/31 07:19:07;;;;;;;8.38;4.35;;;16.90;99.90;;;;;;5050458;28;20037;-66
2023/07/31 07:21:33;;;;;;;5.97;3.33;;;16.80;99.90;;;;;;5033860;28;20048;-66
2023/07/31 07:24:00;;;;;;;5.45;3.22;;;16.80;99.90;;;;;;5033929;28;20128;-66
2023/07/31 07:26:26;;;;;;;5.88;3.38;;;16.80;99.90;;;;;;5017659;28;20134;-65
2023/07/31 07:28:52;;;;;;;5.93;3.22;;;16.90;99.90;;;;;;5050944;28;20441;-66
2023/07/31 07:31:19;;;;;;;4.90;2.63;;;16.90;99.90;;;;;;5033857;28;20124;-67
2023/07/31 07:33:45;;;;;;;6.00;2.60;;;16.90;99.90;;;;;;5034070;28;20107;-66
2023/07/31 07:36:13;;;;;;;5.60;3.30;;;16.90;99.90;;;;;;5051549;28;20044;-66
2023/07/31 07:38:41;;;;;;;5.38;2.67;;;17.00;99.90;;;;;;5017765;28;20116;-66
2023/07/31 07:41:07;;;;;;;5.07;2.80;;;17.00;99.90;;;;;;5033486;28;20042;-66
2023/07/31 07:43:34;;;;;;;4.38;2.63;;;16.90;99.90;;;;;;5037615;28;20462;-66
2023/07/31 07:46:01;;;;;;;5.32;2.90;;;16.90;99.90;;;;;;5037603;28;20053;-66
2023/07/31 07:48:27;;;;;;;4.22;3.08;;;16.90;99.90;;;;;;5054849;28;20504;-65
2023/07/31 07:50:53;;;;;;;4.78;2.95;;;17.00;99.90;;;;;;5053718;28;20056;-66
2023/07/31 07:53:19;;;;;;;4.45;2.67;;;16.90;99.90;;;;;;5036893;28;20111;-65
2023/07/31 07:55:46;;;;;;;4.40;3.28;;;16.90;99.90;;;;;;5054773;28;20060;-66
2023/07/31 07:58:12;;;;;;;4.22;2.60;;;17.10;99.90;;;;;;5037008;28;20053;-66
2023/07/31 08:00:39;;;;;;;4.38;2.60;;;17.20;99.90;;;;;;5038901;28;20396;-65
2023/07/31 08:03:05;;;;;;;4.88;2.92;;;17.20;99.90;;;;;;5036846;28;20057;-65
2023/07/31 08:05:34;;;;;;;5.78;3.10;;;17.20;99.90;;;;;;5050250;28;20041;-66
2023/07/31 08:08:00;;;;;;;3.60;2.90;;;17.20;99.90;;;;;;5020251;28;20053;-66
2023/07/31 08:10:26;;;;;;;3.95;2.95;;;17.40;99.90;;;;;;5036082;28;20087;-67
2023/07/31 08:12:52;;;;;;;4.05;2.55;;;17.20;99.90;;;;;;5036573;28;20066;-66
2023/07/31 08:15:18;;;;;;;4.20;2.53;;;17.30;99.90;;;;;;5036440;28;20045;-66
2023/07/31 08:17:45;;;;;;;4.93;2.92;;;17.30;99.90;;;;;;5035885;28;20048;-66
2023/07/31 08:20:11;;;;;;;3.75;3.00;;;17.30;99.90;;;;;;5035885;28;20056;-66
2023/07/31 08:22:39;;;;;;;5.05;3.03;;;17.20;99.90;;;;;;5033754;28;20056;-66
2023/07/31 08:25:06;;;;;;;2.90;2.30;;;17.20;99.90;;;;;;5035997;28;20401;-65
2023/07/31 08:27:32;;;;;;;4.25;2.53;;;17.40;99.90;;;;;;5019637;28;20102;-66
2023/07/31 08:29:59;;;;;;;4.22;2.30;;;17.40;99.90;;;;;;5035225;28;20052;-66
2023/07/31 08:32:25;;;;;;;4.03;2.50;;;17.50;99.90;;;;;;5036505;28;20064;-66
2023/07/31 08:34:52;;;;;;;3.20;2.40;;;17.40;99.90;;;;;;5036038;28;20337;-67
2023/07/31 08:37:18;;;;;;;2.97;2.22;;;17.30;99.90;;;;;;5035965;28;20056;-66
2023/07/31 08:39:44;;;;;;;3.10;2.25;;;17.40;99.90;;;;;;5035736;28;20045;-66
2023/07/31 08:42:11;;;;;;;4.18;2.85;;;17.40;99.90;;;;;;5036793;28;20044;-66
2023/07/31 08:44:38;;;;;;;4.10;2.50;;;17.50;99.90;;;;;;5035941;28;20052;-66
2023/07/31 08:47:05;;;;;;;4.38;2.33;;;17.50;99.90;;;;;;5036457;28;20052;-66
2023/07/31 08:49:32;;;;;;;3.33;2.60;;;17.40;99.90;;;;;;5035365;28;20414;-67
2023/07/31 08:52:04;;;;;;;3.53;2.47;;;17.50;99.90;;;;;;5035819;28;20078;-66
2023/07/31 08:54:33;;;;;;;2.80;2.03;;;17.60;99.90;;;;;;5035619;28;20473;-66
2023/07/31 08:57:00;;;;;;;2.78;2.00;;;17.60;99.90;;;;;;5054133;28;20059;-65
2023/07/31 08:59:31;;;;;;;3.40;2.28;;;17.70;99.90;;;;;;5032428;28;20388;-66
2023/07/31 09:02:08;;;;;;;2.80;2.30;;;17.60;99.90;;;;;;5016516;28;20049;-66
2023/07/31 09:04:35;;;;;;;2.97;2.00;;;17.70;99.90;;;;;;5033682;28;20056;-67
2023/07/31 09:07:04;;;;;;;3.25;2.28;;;17.70;99.90;;;;;;5017005;28;20061;-66
2023/07/31 09:09:31;;;;;;;3.20;2.22;;;17.80;99.90;;;;;;5016624;28;20065;-67
2023/07/31 09:11:58;;;;;;;3.95;2.30;;;17.80;99.90;;;;;;5016203;28;20053;-66
2023/07/31 09:14:33;;;;;;;3.30;2.22;;;17.70;99.90;;;;;;4999285;28;20466;-67
2023/07/31 09:16:59;;;;;;;3.15;2.30;;;17.70;99.90;;;;;;5034490;28;20041;-66
2023/07/31 09:19:33;;;;;;;3.03;2.20;;;17.70;99.90;;;;;;5034957;28;20921;-66
2023/07/31 09:22:00;;;;;;;2.63;2.00;;;17.80;99.90;;;;;;5019241;28;20450;-66
2023/07/31 09:24:30;;;;;;;3.53;2.42;;;17.90;99.90;;;;;;5019006;28;20131;-68
2023/07/31 09:26:58;;;;;;;3.35;2.20;;;18.00;99.90;;;;;;5053070;28;20484;-67
2023/07/31 09:29:27;;;;;;;2.97;2.08;;;18.10;99.90;;;;;;5032789;28;20050;-66
2023/07/31 09:31:54;;;;;;;2.45;2.10;;;18.10;99.90;;;;;;5034945;28;20048;-67
2023/07/31 09:34:38;;;;;;;3.40;2.00;;;18.10;99.90;;;;;;5018659;28;20045;-68
2023/07/31 09:37:05;;;;;;;3.20;2.03;;;18.20;99.90;;;;;;5034730;28;20041;-67
2023/07/31 09:39:31;;;;;;;2.78;1.95;;;18.20;99.90;;;;;;5034632;28;20049;-67
2023/07/31 09:41:57;;;;;;;3.30;2.30;;;18.20;99.90;;;;;;5053349;28;20386;-68
2023/07/31 09:44:41;;;;;;;3.13;2.42;;;18.00;99.90;;;;;;5032390;28;20107;-67
2023/07/31 09:47:30;;;;;;;;;;;18.30;99.90;;;;;;4999629;28;20049;-67
2023/07/31 09:49:57;;;;;;;2.83;2.13;;;18.10;99.90;;;;;;5006001;28;19983;-67
2023/07/31 09:52:27;;;;;;;3.75;2.53;;;18.30;99.90;;;;;;5035393;28;20111;-66
2023/07/31 09:54:53;;;;;;;4.57;2.60;;;18.30;99.90;;;;;;5018426;28;20045;-67
2023/07/31 09:57:22;;;;;;;2.85;2.35;;;18.40;99.90;;;;;;5034563;28;20040;-67
2023/07/31 09:59:49;;;;;;;3.83;2.22;;;18.40;99.90;;;;;;5034668;28;20079;-67
2023/07/31 10:02:32;;;;;;;3.75;2.30;;;18.40;99.90;;;;;;5034983;28;20345;-67
2023/07/31 10:05:02;;;;;;;2.70;2.03;;;18.50;99.90;;;;;;5018157;28;20377;-67
2023/07/31 10:07:33;;;;;;;2.50;2.15;;;18.40;99.90;;;;;;5034921;28;20069;-67
2023/07/31 10:10:01;;;;;;;2.45;1.95;;;18.40;99.90;;;;;;5045575;28;20057;-66
2023/07/31 10:12:28;;;;;;;2.83;1.98;;;18.60;99.90;;;;;;5032158;28;20504;-67
2023/07/31 10:14:55;;;;;;;2.30;1.95;;;18.70;99.90;;;;;;5014754;28;20421;-67
2023/07/31 10:17:24;;;;;;;3.67;1.90;;;18.50;99.90;;;;;;5015093;28;20041;-67
2023/07/31 10:19:51;;;;;;;2.60;2.10;;;18.60;99.90;;;;;;5020291;28;20064;-68
2023/07/31 10:22:21;;;;;;;2.58;2.13;;;18.70;99.90;;;;;;5034926;28;20044;-66
2023/07/31 10:24:49;;;;;;;2.35;1.80;;;18.60;99.90;;;;;;5034266;28;20045;-67
2023/07/31 10:27:16;;;;;;;2.13;1.83;;;18.80;99.90;;;;;;5034560;28;20060;-67
2023/07/31 10:29:44;;;;;;;2.75;1.77;;;18.80;99.90;;;;;;5033530;28;20068;-67
2023/07/31 10:32:15;;;;;;;2.53;2.00;;;18.70;99.90;;;;;;5035087;28;20306;-66
2023/07/31 10:34:41;;;;;;;1.95;1.42;;;18.90;99.90;;;;;;5034757;28;20056;-66
2023/07/31 10:37:25;;;;;;;2.25;1.80;;;18.90;99.90;;;;;;5050151;28;20053;-66
2023/07/31 10:40:19;;;;;;;2.53;1.90;;;19.00;99.90;;;;;;5031347;28;20076;-68
2023/07/31 10:42:50;;;;;;;2.65;1.90;;;19.00;99.90;;;;;;5014935;28;20057;-68
2023/07/31 10:45:31;;;;;;;2.03;1.73;;;19.10;99.90;;;;;;5013946;28;20046;-66
2023/07/31 10:48:06;;;;;;;2.63;2.10;;;18.90;99.90;;;;;;5014109;28;20053;-67
2023/07/31 10:50:49;;;;;;;2.22;1.83;;;19.00;99.90;;;;;;5013794;28;20064;-66
2023/07/31 10:53:35;;;;;;;1.65;1.25;;;19.00;99.90;;;;;;5014234;28;20080;-67
2023/07/31 10:56:15;;;;;;;1.58;1.20;;;19.00;99.90;;;;;;4998581;28;20057;-66
2023/07/31 10:58:44;;;;;;;2.20;1.60;;;19.00;99.90;;;;;;5013858;28;20466;-66
2023/07/31 11:01:11;;;;;;;2.15;1.45;;;19.10;99.90;;;;;;5013912;28;20045;-67
2023/07/31 11:03:46;;;;;;;1.95;1.42;;;19.00;99.90;;;;;;5014384;28;20112;-67
2023/07/31 11:06:13;;;;;;;2.30;1.50;;;19.30;99.90;;;;;;4998010;28;20061;-67
2023/07/31 11:08:47;;;;;;;2.42;1.45;;;19.30;99.90;;;;;;5013945;28;20061;-66
2023/07/31 11:11:16;;;;;;;2.10;1.50;;;19.40;99.90;;;;;;5013752;28;20072;-67
2023/07/31 11:13:52;;;;;;;1.85;1.33;;;19.40;99.90;;;;;;5014098;28;20120;-67
2023/07/31 11:16:22;;;;;;;1.75;1.20;;;19.40;99.90;;;;;;4999256;28;20049;-67
2023/07/31 11:18:51;;;;;;;2.88;1.58;;;19.50;99.90;;;;;;5016952;28;20049;-67
2023/07/31 11:21:19;;;;;;;2.45;1.35;;;19.70;99.90;;;;;;4999525;28;20466;-66
2023/07/31 11:23:50;;;;;;;2.10;1.30;;;19.70;99.90;;;;;;5017482;28;20120;-67
2023/07/31 11:26:18;;;;;;;1.80;1.20;;;20.00;99.90;;;;;;5018207;28;20419;-67
2023/07/31 11:28:47;;;;;;;2.35;1.20;;;20.00;99.90;;;;;;5018004;28;20068;-67
2023/07/31 11:31:14;;;;;;;2.22;1.25;;;19.80;99.90;;;;;;5018236;28;20389;-67
2023/07/31 11:33:41;;;;;;;3.90;1.55;;;19.80;99.90;;;;;;5018650;28;20064;-66
2023/07/31 11:36:16;;;;;;;5.47;2.22;;;19.90;99.90;;;;;;5018104;28;20380;-66
2023/07/31 11:38:42;;;;;;;6.70;2.50;;;19.90;99.90;;;;;;5049422;28;20057;-68
2023/07/31 11:41:15;;;;;;;6.03;2.33;;;20.10;99.90;;;;;;5036489;28;20057;-65
2023/07/31 11:43:43;;;;;;;3.70;2.08;;;20.00;99.90;;;;;;5037761;28;20465;-67
2023/07/31 11:46:09;;;;;;;5.13;1.90;;;20.10;99.90;;;;;;5020386;28;20512;-66
2023/07/31 11:48:37;;;;;;;4.25;2.03;;;20.00;99.90;;;;;;5018416;28;20111;-68
2023/07/31 11:51:11;;;;;;;5.53;2.13;;;20.20;99.90;;;;;;5017423;28;20063;-67
2023/07/31 11:53:51;;;;;;;6.07;2.00;;;20.20;99.90;;;;;;5017798;28;20258;-68
2023/07/31 11:56:50;;;;;;;7.70;2.90;;;20.30;99.90;;;;;;5017356;28;20103;-67
2023/07/31 11:59:17;;;;;;;5.65;2.05;;;20.20;99.90;;;;;;5017161;28;20077;-67
2023/07/31 12:01:44;;;;;;;5.85;2.42;;;20.30;99.90;;;;;;5001099;28;20065;-67
2023/07/31 12:04:10;;;;;;;4.93;2.00;;;20.20;99.90;;;;;;5002033;28;20112;-66
2023/07/31 12:06:37;;;;;;;6.95;2.70;;;20.10;99.90;;;;;;5018202;28;20053;-66
2023/07/31 12:09:06;;;;;;;6.82;2.75;;;20.10;99.90;;;;;;5017725;28;20060;-66
2023/07/31 12:11:45;;;;;;;5.00;2.83;;;20.20;99.90;;;;;;5036599;28;20468;-67
2023/07/31 12:14:25;;;;;;;5.68;2.55;;;20.40;99.90;;;;;;5038252;28;20049;-66
2023/07/31 12:17:00;;;;;;;5.25;2.75;;;20.60;99.90;;;;;;5038047;28;20049;-67
2023/07/31 12:19:30;;;;;;;7.05;2.65;;;20.80;99.90;;;;;;5035887;28;20111;-67
2023/07/31 12:21:58;;;;;;;7.00;2.83;;;21.00;99.90;;;;;;5018037;28;20049;-67
2023/07/31 12:24:26;;;;;;;5.05;3.05;;;21.10;99.90;;;;;;5001860;28;20134;-67
2023/07/31 12:26:52;;;;;;;7.00;2.60;;;21.20;99.90;;;;;;5017870;28;20560;-66
2023/07/31 12:29:19;;;;;;;5.75;2.63;;;21.30;99.90;;;;;;5017259;28;20045;-67
2023/07/31 12:31:45;;;;;;;7.10;2.40;;;21.30;99.90;;;;;;5055551;28;20048;-66
2023/07/31 12:34:20;;;;;;;7.68;2.85;;;21.20;99.90;;;;;;5038039;28;20049;-66
2023/07/31 12:36:48;;;;;;;6.22;2.70;;;21.10;99.90;;;;;;5038168;28;20489;-67
2023/07/31 12:39:15;;;;;;;4.68;2.30;;;21.10;99.90;;;;;;5002051;28;20053;-66
2023/07/31 12:41:41;;;;;;;6.90;2.67;;;21.00;99.90;;;;;;5017849;28;20489;-65
2023/07/31 12:44:07;;;;;;;6.32;2.38;;;21.10;99.90;;;;;;5018559;28;20049;-67
2023/07/31 12:46:33;;;;;;;5.63;2.58;;;21.10;99.90;;;;;;4998936;28;20054;-66
2023/07/31 12:49:01;;;;;;;7.97;2.75;;;21.10;99.90;;;;;;4998789;28;20386;-66
2023/07/31 12:51:27;;;;;;;5.18;2.60;;;21.00;99.90;;;;;;5016755;28;20053;-66